Time;durP1;ratioP1;P1;durP2;ratioP2;P2;SDS_P1;SDS_P2;PMS_P1;PMS_P2;Temp;Humidity;BMP_temperature;BMP_pressure;BME280_temperature;BME280_humidity;BME280_pressure;Samples;Min_cycle;Max_cycle;Signal;HPM_P1;HPM_P2
2023/11/15 00:14:57;;;;;;;0.85;0.60;;;;;;;12.25;63.69;94879.41;6125891;23;20057;-86
2023/11/15 00:17:22;;;;;;;1.67;0.70;;;;;;;12.38;63.36;94884.66;6072097;23;20058;-85
2023/11/15 01:23:22;;;;;;;3.15;1.05;;;;;;;12.08;65.53;94931.88;6139156;23;20014;-86
2023/11/15 01:25:50;;;;;;;2.97;1.10;;;;;;;12.32;64.59;94937.59;6068950;23;20019;-86
2023/11/15 07:45:05;;;;;;;1.50;0.80;;;;;;;12.14;61.07;95258.81;6122491;23;20034;-86
2023/11/15 07:47:34;;;;;;;2.90;0.95;;;;;;;12.22;60.76;95265.69;6121726;23;20100;-85
2023/11/15 07:50:02;;;;;;;2.88;1.10;;;;;;;12.27;60.83;95268.56;6074838;23;20010;-85
2023/11/15 07:52:31;;;;;;;2.50;0.90;;;;;;;12.30;60.73;95278.63;6079769;23;20009;-85
2023/11/15 07:54:58;;;;;;;2.63;0.80;;;;;;;12.32;60.78;95276.63;6126612;23;20080;-86
2023/11/15 11:04:25;;;;;;;1.13;0.57;;;;;;;13.77;54.51;95361.44;6109203;23;20118;-86
2023/11/15 11:06:58;;;;;;;4.82;1.10;;;;;;;13.84;53.83;95361.44;6084809;23;20018;-86
2023/11/15 11:09:45;;;;;;;4.60;2.85;;;;;;;13.48;55.38;95367.72;6097364;23;20022;-85
2023/11/15 11:17:35;;;;;;;1.88;1.00;;;;;;;13.59;55.45;95361.94;6093718;23;20029;-85
2023/11/15 11:20:02;;;;;;;1.35;1.00;;;;;;;13.63;56.32;95351.91;6068503;23;20010;-85
2023/11/15 11:22:32;;;;;;;1.20;0.60;;;;;;;13.82;54.99;95355.63;6044588;23;20093;-86
2023/11/15 11:25:07;;;;;;;1.20;0.90;;;;;;;13.79;55.16;95358.63;6068912;23;20010;-86
2023/11/15 11:27:36;;;;;;;2.72;0.93;;;;;;;13.91;54.83;95362.28;6092226;23;20006;-85
2023/11/15 11:30:02;;;;;;;3.40;0.70;;;;;;;14.00;54.14;95358.53;6043450;23;20054;-85
2023/11/15 11:32:34;;;;;;;1.73;0.47;;;;;;;13.88;53.96;95365.31;6067616;23;20010;-86
2023/11/15 11:35:07;;;;;;;2.33;0.50;;;;;;;13.98;53.08;95363.13;6118090;23;20026;-85
2023/11/15 11:37:47;;;;;;;1.90;0.45;;;;;;;13.91;54.72;95366.72;6122946;23;20006;-85
2023/11/15 11:40:35;;;;;;;1.35;0.50;;;;;;;13.79;54.21;95369.88;6096643;23;20013;-85
2023/11/15 11:43:29;;;;;;;0.80;0.40;;;;;;;13.81;54.00;95362.66;6095932;23;20009;-86
2023/11/15 11:45:56;;;;;;;1.23;0.40;;;;;;;13.81;54.22;95361.84;6096833;23;20009;-86
2023/11/15 11:48:24;;;;;;;0.38;0.30;;;;;;;13.71;53.80;95359.59;6097619;23;20014;-86
2023/11/15 11:53:39;;;;;;;1.23;0.50;;;;;;;13.71;54.54;95356.16;6121245;23;20032;-86
2023/11/15 11:56:06;;;;;;;0.85;0.43;;;;;;;13.74;54.25;95353.16;6096645;23;20010;-86
2023/11/15 11:58:32;;;;;;;1.38;0.40;;;;;;;13.85;54.47;95360.47;6096225;23;20013;-86
2023/11/15 12:01:02;;;;;;;0.50;0.40;;;;;;;13.89;54.60;95362.50;6096896;23;20013;-85
2023/11/15 12:03:30;;;;;;;0.63;0.40;;;;;;;13.91;53.44;95354.44;6096362;23;20017;-86
2023/11/15 12:06:12;;;;;;;0.80;0.50;;;;;;;13.96;54.19;95361.72;6096041;23;20016;-86
2023/11/15 12:08:50;;;;;;;1.88;0.50;;;;;;;14.13;54.99;95357.78;6097176;23;20089;-86
2023/11/15 12:11:18;;;;;;;0.40;0.40;;;;;;;14.26;54.47;95352.59;6095301;23;20033;-86
2023/11/15 12:13:50;;;;;;;1.30;0.60;;;;;;;14.26;54.02;95347.34;6095838;23;20014;-87
2023/11/15 12:16:24;;;;;;;3.30;0.60;;;;;;;14.47;54.43;95353.44;6096071;23;20006;-87
2023/11/15 12:19:09;;;;;;;2.75;0.60;;;;;;;14.27;55.58;95346.31;6095673;23;20001;-86
2023/11/15 12:21:44;;;;;;;1.45;0.50;;;;;;;14.62;53.23;95334.94;6095962;23;20029;-88
2023/11/15 12:26:46;;;;;;;1.53;0.60;;;;;;;15.12;52.33;95319.66;6130347;23;20026;-86
2023/11/15 12:29:23;;;;;;;1.25;0.60;;;;;;;15.11;50.24;95325.91;6096674;23;20248;-86
2023/11/15 12:31:55;;;;;;;1.33;0.50;;;;;;;15.41;50.95;95326.25;6120651;23;20020;-86
2023/11/15 12:34:21;;;;;;;0.70;0.30;;;;;;;15.69;50.13;95321.75;6121554;23;20084;-86
2023/11/15 12:36:48;;;;;;;0.52;0.38;;;;;;;15.54;49.50;95328.06;6072305;23;20092;-86
2023/11/15 12:39:15;;;;;;;1.75;0.40;;;;;;;15.14;50.13;95325.50;6099118;23;20054;-86
2023/11/15 12:41:49;;;;;;;1.30;0.40;;;;;;;15.28;49.62;95333.34;6150029;23;20045;-86
2023/11/15 12:44:16;;;;;;;1.85;0.50;;;;;;;14.93;50.94;95330.97;6174995;23;20005;-88
2023/11/15 12:46:42;;;;;;;1.02;0.45;;;;;;;14.65;51.53;95330.13;6150764;23;20021;-88
2023/11/15 12:49:15;;;;;;;0.85;0.43;;;;;;;14.70;51.09;95318.25;6175866;23;20006;-88
2023/11/15 12:51:45;;;;;;;1.15;0.50;;;;;;;14.74;50.07;95335.19;6150244;23;20014;-87
2023/11/15 12:54:13;;;;;;;0.60;0.50;;;;;;;14.77;50.41;95332.94;6175256;23;20025;-86
2023/11/15 12:56:39;;;;;;;1.85;0.60;;;;;;;14.62;52.01;95345.41;6127197;23;20013;-86
2023/11/15 13:01:30;;;;;;;1.77;0.47;;;;;;;14.24;54.01;95345.91;6099126;23;20065;-86
2023/11/15 13:03:58;;;;;;;0.55;0.43;;;;;;;14.14;54.28;95335.81;6074286;23;20045;-87
2023/11/15 13:06:26;;;;;;;1.02;0.50;;;;;;;13.93;55.53;95342.00;6127521;23;20017;-86
2023/11/15 13:08:53;;;;;;;1.95;0.50;;;;;;;13.94;55.86;95348.84;6127803;23;20044;-86
2023/11/15 13:11:24;;;;;;;1.60;0.70;;;;;;;13.97;54.98;95332.75;6126955;23;20136;-85
2023/11/15 13:13:50;;;;;;;0.93;0.52;;;;;;;13.94;55.94;95337.59;6127190;23;20005;-84
2023/11/15 13:16:17;;;;;;;0.85;0.50;;;;;;;13.96;55.12;95340.81;6092970;23;20101;-85
2023/11/15 13:18:44;;;;;;;1.55;0.50;;;;;;;14.04;55.14;95338.81;6097126;23;20020;-85
2023/11/15 13:21:15;;;;;;;0.98;0.50;;;;;;;14.03;54.49;95337.22;6074774;23;20006;-86
2023/11/15 13:23:42;;;;;;;1.98;0.50;;;;;;;13.92;55.29;95334.34;6098192;23;20009;-86
2023/11/15 13:26:10;;;;;;;0.80;0.40;;;;;;;13.89;54.65;95341.56;6098149;23;20006;-86
2023/11/15 13:28:39;;;;;;;1.17;0.40;;;;;;;13.83;54.42;95333.72;6074934;23;20013;-86
2023/11/15 13:31:10;;;;;;;0.40;0.40;;;;;;;13.78;55.30;95338.72;6097915;23;20025;-86
2023/11/15 13:33:39;;;;;;;0.75;0.40;;;;;;;14.08;54.75;95344.47;6121928;23;20065;-85
2023/11/15 13:36:06;;;;;;;1.42;0.30;;;;;;;14.23;53.74;95332.03;6098223;23;20089;-86
2023/11/15 13:38:35;;;;;;;1.65;0.43;;;;;;;14.26;54.33;95352.59;6097683;23;20063;-85
2023/11/15 13:41:02;;;;;;;1.20;0.40;;;;;;;14.32;53.77;95351.00;6097071;23;20072;-85
2023/11/15 13:43:28;;;;;;;0.50;0.30;;;;;;;14.16;52.20;95338.25;6097052;23;20013;-86
2023/11/15 13:45:55;;;;;;;1.10;0.40;;;;;;;14.18;53.03;95339.66;6096871;23;20076;-86
2023/11/15 13:48:21;;;;;;;0.47;0.40;;;;;;;14.20;53.78;95326.38;6074619;23;20010;-86
2023/11/15 13:50:47;;;;;;;7.93;0.85;;;;;;;14.47;53.43;95328.06;6097586;23;20030;-86
2023/11/15 13:53:13;;;;;;;0.73;0.30;;;;;;;14.19;54.43;95335.25;6049016;23;20017;-86
2023/11/15 13:55:39;;;;;;;1.13;0.30;;;;;;;14.54;54.75;95333.31;6097808;23;20014;-86
2023/11/15 13:58:06;;;;;;;0.63;0.40;;;;;;;14.85;53.03;95339.81;6097501;23;20013;-86
2023/11/15 14:00:34;;;;;;;0.95;0.40;;;;;;;14.94;52.60;95327.31;6121497;23;20009;-86
2023/11/15 14:03:06;;;;;;;0.45;0.40;;;;;;;15.05;52.17;95334.56;6096851;23;20014;-85
2023/11/15 14:05:31;;;;;;;0.45;0.30;;;;;;;15.12;50.82;95340.63;6096988;23;20097;-86
2023/11/15 14:07:57;;;;;;;2.22;0.50;;;;;;;14.89;52.07;95348.88;6096909;23;20022;-85
2023/11/15 14:10:27;;;;;;;0.35;0.28;;;;;;;15.00;50.82;95352.69;6073327;23;20018;-86
2023/11/15 14:12:52;;;;;;;1.53;0.47;;;;;;;14.53;52.28;95351.84;6074268;23;20026;-86
2023/11/15 14:15:21;;;;;;;0.50;0.30;;;;;;;14.66;51.41;95357.94;6073160;23;20021;-86
2023/11/15 14:17:48;;;;;;;1.17;0.60;;;;;;;14.75;51.46;95363.75;6096840;23;20156;-86
2023/11/15 14:20:15;;;;;;;1.42;0.50;;;;;;;14.47;50.89;95361.28;6073473;23;20028;-86
2023/11/15 14:22:42;;;;;;;0.88;0.57;;;;;;;14.52;50.95;95363.31;6097505;23;20021;-86
2023/11/15 14:25:19;;;;;;;1.33;0.45;;;;;;;14.38;51.49;95370.31;6097595;23;20010;-86
2023/11/15 14:27:46;;;;;;;1.33;0.40;;;;;;;14.31;51.61;95380.75;6097051;23;20010;-86
2023/11/15 14:30:12;;;;;;;1.52;0.70;;;;;;;14.25;51.25;95382.34;6097053;23;20009;-86
2023/11/15 14:32:37;;;;;;;2.00;0.77;;;;;;;14.15;51.44;95388.97;6073675;23;20030;-86
2023/11/15 14:35:08;;;;;;;2.15;0.50;;;;;;;13.95;52.31;95388.88;6097462;23;20013;-85
2023/11/15 14:37:33;;;;;;;3.03;0.85;;;;;;;13.90;52.62;95389.47;6074790;23;20006;-86
2023/11/15 14:39:59;;;;;;;1.70;0.60;;;;;;;13.99;51.71;95404.00;6098162;23;20014;-86
2023/11/15 14:42:24;;;;;;;3.13;0.50;;;;;;;13.89;52.47;95411.38;6097407;23;20013;-85
2023/11/15 14:44:51;;;;;;;2.15;0.50;;;;;;;13.54;54.65;95424.44;6097828;23;20010;-86
2023/11/15 14:47:21;;;;;;;1.13;0.40;;;;;;;13.18;55.01;95424.53;6097015;23;20037;-86
2023/11/15 14:49:47;;;;;;;1.08;0.40;;;;;;;12.95;55.77;95422.13;6074010;23;20020;-86
2023/11/15 14:52:15;;;;;;;0.73;0.35;;;;;;;13.04;55.24;95413.16;6072812;23;20014;-85
2023/11/15 14:54:41;;;;;;;2.28;0.40;;;;;;;12.76;56.13;95423.56;6097234;23;20037;-86
2023/11/15 14:57:08;;;;;;;1.67;0.63;;;;;;;12.99;55.34;95434.63;6097878;23;20010;-86
2023/11/15 14:59:37;;;;;;;1.30;0.45;;;;;;;12.88;56.03;95435.91;6074010;23;20018;-85
2023/11/15 15:02:03;;;;;;;0.50;0.30;;;;;;;12.70;56.13;95440.75;6097740;23;20013;-86
2023/11/15 15:04:29;;;;;;;0.50;0.30;;;;;;;12.82;55.68;95434.06;6098456;23;20025;-86
2023/11/15 15:06:54;;;;;;;0.68;0.30;;;;;;;12.57;55.88;95431.00;6073922;23;20030;-85
2023/11/15 15:09:20;;;;;;;1.55;0.40;;;;;;;12.85;55.21;95427.63;6073942;23;20013;-87
2023/11/15 15:11:48;;;;;;;3.10;0.40;;;;;;;12.71;55.53;95427.50;6097593;23;20012;-87
2023/11/15 15:14:15;;;;;;;1.85;0.50;;;;;;;12.69;55.50;95428.69;6097768;23;20069;-86
2023/11/15 15:16:41;;;;;;;0.57;0.40;;;;;;;12.39;56.97;95433.19;6073268;23;20018;-86
2023/11/15 15:19:08;;;;;;;1.00;0.40;;;;;;;12.45;56.56;95429.84;6097750;23;20140;-86
2023/11/15 15:21:35;;;;;;;1.35;0.50;;;;;;;12.74;55.01;95431.56;6096711;23;20029;-87
2023/11/15 15:24:00;;;;;;;0.52;0.40;;;;;;;12.55;55.12;95430.38;6072551;23;20016;-87
2023/11/15 15:26:26;;;;;;;1.55;0.40;;;;;;;12.69;55.11;95429.50;6073699;23;20115;-86
2023/11/15 15:28:52;;;;;;;2.28;0.50;;;;;;;12.57;55.53;95432.81;6074067;23;20017;-87
2023/11/15 15:31:18;;;;;;;1.65;0.60;;;;;;;12.66;54.10;95426.44;6073860;23;20065;-86
2023/11/15 15:36:20;;;;;;;0.90;0.60;;;;;;;12.62;55.26;95430.41;6099433;23;20044;-87
2023/11/15 15:38:46;;;;;;;1.27;0.60;;;;;;;12.47;55.01;95415.63;6122202;23;20052;-86
2023/11/15 15:41:11;;;;;;;1.83;0.70;;;;;;;12.36;55.54;95439.59;6121716;23;20013;-86
2023/11/15 15:43:37;;;;;;;1.38;0.60;;;;;;;12.61;54.20;95441.88;6097242;23;20006;-87
2023/11/15 15:46:03;;;;;;;1.52;0.70;;;;;;;12.38;54.92;95440.22;6122008;23;20025;-86
2023/11/15 15:48:28;;;;;;;2.22;0.70;;;;;;;12.24;54.96;95435.81;6121897;23;20009;-86
2023/11/15 15:50:57;;;;;;;1.98;0.63;;;;;;;12.31;55.07;95447.13;6097616;23;20146;-86
2023/11/15 15:53:23;;;;;;;3.63;0.70;;;;;;;12.20;55.25;95434.56;6121476;23;20010;-87
2023/11/15 15:55:48;;;;;;;1.58;0.57;;;;;;;12.63;53.93;95438.06;6121068;23;20041;-86
2023/11/15 15:58:15;;;;;;;1.15;0.50;;;;;;;12.54;53.54;95438.38;6121032;23;20018;-86
2023/11/15 16:00:41;;;;;;;2.15;0.57;;;;;;;12.57;54.71;95453.66;6097554;23;20014;-86
2023/11/15 16:03:06;;;;;;;4.60;2.30;;;;;;;12.45;56.09;95435.88;6121306;23;20060;-87
2023/11/15 16:05:32;;;;;;;39.50;22.20;;;;;;;12.43;56.50;95450.09;6120315;23;20014;-87
2023/11/15 16:08:00;;;;;;;19.25;11.13;;;;;;;12.42;57.32;95456.31;6120511;23;20017;-86
2023/11/15 16:10:25;;;;;;;37.03;20.08;;;;;;;12.25;58.21;95447.88;6121708;23;20014;-85
2023/11/15 16:12:51;;;;;;;27.63;17.58;;;;;;;12.04;59.64;95454.63;6120776;23;20033;-86
2023/11/15 16:15:18;;;;;;;10.60;6.82;;;;;;;12.17;59.22;95454.00;6120651;23;20065;-86
2023/11/15 16:20:19;;;;;;;4.05;1.42;;;;;;;12.42;58.79;95470.16;6121695;23;20029;-86
2023/11/15 16:22:45;;;;;;;2.38;1.45;;;;;;;12.20;59.45;95477.09;6073265;23;20119;-85
2023/11/15 16:25:12;;;;;;;2.50;1.55;;;;;;;12.55;58.18;95500.00;6121745;23;20021;-85
2023/11/15 16:27:38;;;;;;;3.97;2.70;;;;;;;12.51;58.71;95487.31;6146237;23;20014;-87
2023/11/15 16:30:05;;;;;;;2.67;1.27;;;;;;;12.42;59.22;95516.31;6121442;23;20014;-85
2023/11/15 16:37:33;;;;;;;3.13;0.90;;;;;;;12.10;58.94;95508.66;6122775;23;20029;-85
2023/11/15 16:39:58;;;;;;;2.55;0.90;;;;;;;12.30;57.95;95531.59;6075917;23;20014;-85
2023/11/15 16:42:25;;;;;;;2.83;0.90;;;;;;;12.18;58.47;95517.38;6098588;23;20014;-85
2023/11/15 16:44:51;;;;;;;4.47;1.20;;;;;;;11.89;59.35;95525.00;6075469;23;20022;-85
2023/11/15 16:47:22;;;;;;;3.58;1.20;;;;;;;11.90;59.30;95508.38;6075135;23;20041;-85
2023/11/15 16:49:52;;;;;;;7.95;4.25;;;;;;;11.73;59.58;95528.56;6075102;23;20044;-86
2023/11/15 16:52:20;;;;;;;10.07;5.55;;;;;;;11.81;59.29;95529.47;6122901;23;20013;-85
2023/11/15 16:54:46;;;;;;;5.53;3.15;;;;;;;11.38;60.42;95529.97;6123039;23;20025;-86
2023/11/15 16:57:14;;;;;;;11.43;6.22;;;;;;;11.54;60.04;95518.63;6098610;23;20014;-85
2023/11/15 16:59:43;;;;;;;4.10;2.30;;;;;;;11.71;59.69;95530.53;6123197;23;20006;-85
2023/11/15 17:02:08;;;;;;;6.65;2.70;;;;;;;11.71;59.72;95529.72;6103652;23;20041;-86
2023/11/15 17:04:34;;;;;;;13.15;6.43;;;;;;;11.99;58.22;95518.72;6103989;23;20021;-85
2023/11/15 17:06:59;;;;;;;5.90;2.60;;;;;;;11.71;59.04;95537.53;6104075;23;20009;-86
2023/11/15 17:09:25;;;;;;;27.15;16.88;;;;;;;11.78;58.80;95535.81;6128562;23;20089;-87
2023/11/15 17:11:51;;;;;;;8.88;4.50;;;;;;;11.80;58.93;95535.66;6127808;23;20009;-85
2023/11/15 17:14:20;;;;;;;6.22;1.50;;;;;;;11.78;60.00;95545.44;6127586;23;20112;-85
2023/11/15 17:16:46;;;;;;;4.20;1.25;;;;;;;11.64;61.36;95542.63;6127805;23;20048;-85
2023/11/15 17:19:15;;;;;;;2.95;1.23;;;;;;;11.58;61.03;95555.56;6128734;23;20008;-86
2023/11/15 17:21:43;;;;;;;3.53;2.55;;;;;;;11.65;60.35;95552.09;6128411;23;20091;-84
2023/11/15 17:24:12;;;;;;;3.97;1.92;;;;;;;11.33;60.82;95555.75;6128417;23;20001;-85
2023/11/15 17:26:39;;;;;;;2.75;1.67;;;;;;;11.53;60.87;95556.88;6104305;23;20053;-85
2023/11/15 17:29:05;;;;;;;3.63;1.70;;;;;;;11.24;61.33;95559.38;6127864;23;20037;-85
2023/11/15 17:31:33;;;;;;;3.55;2.20;;;;;;;11.53;59.95;95567.28;6127176;23;20092;-85
2023/11/15 17:33:58;;;;;;;3.80;1.52;;;;;;;11.40;60.09;95555.84;6127652;23;20009;-86
2023/11/15 17:36:24;;;;;;;2.97;1.40;;;;;;;11.40;60.22;95559.25;6127444;23;20093;-85
2023/11/15 17:38:51;;;;;;;4.93;1.58;;;;;;;11.48;59.84;95554.00;6127857;23;20044;-84
2023/11/15 17:41:19;;;;;;;2.58;1.40;;;;;;;11.67;59.54;95552.72;6105301;23;20056;-85
2023/11/15 17:43:45;;;;;;;3.25;1.23;;;;;;;11.66;58.93;95545.88;6128768;23;20005;-86
2023/11/15 17:46:15;;;;;;;4.85;1.33;;;;;;;11.51;59.06;95545.81;6128321;23;20021;-86
2023/11/15 17:48:41;;;;;;;3.33;1.20;;;;;;;11.62;58.25;95544.59;6101937;23;20010;-85
2023/11/15 17:51:10;;;;;;;2.40;0.85;;;;;;;11.57;58.00;95559.94;6102434;23;20005;-86
2023/11/15 17:53:35;;;;;;;4.70;3.20;;;;;;;11.64;58.82;95558.25;6126457;23;20010;-86
2023/11/15 17:58:28;;;;;;;7.38;5.00;;;;;;;11.40;60.48;95540.22;6123047;23;20022;-86
2023/11/15 18:00:58;;;;;;;6.47;3.83;;;;;;;11.62;59.59;95542.00;6097602;23;20020;-85
2023/11/15 18:03:23;;;;;;;5.88;2.30;;;;;;;11.68;59.01;95541.28;6097939;23;20018;-86
2023/11/15 18:05:49;;;;;;;4.10;2.72;;;;;;;11.64;59.34;95532.22;6097683;23;20009;-85
2023/11/15 18:08:17;;;;;;;6.40;4.50;;;;;;;11.52;60.76;95554.47;6097479;23;20014;-86
2023/11/15 18:10:43;;;;;;;5.20;2.45;;;;;;;11.52;61.10;95537.03;6097965;23;20020;-86
2023/11/15 18:13:09;;;;;;;4.28;2.00;;;;;;;11.70;59.30;95541.13;6097500;23;20014;-85
2023/11/15 18:15:35;;;;;;;4.68;1.80;;;;;;;11.65;59.36;95533.84;6097959;23;20097;-85
2023/11/15 18:18:01;;;;;;;5.03;2.63;;;;;;;11.38;60.67;95535.19;6097730;23;20014;-85
2023/11/15 18:20:27;;;;;;;7.13;4.90;;;;;;;11.41;60.05;95532.25;6073942;23;20010;-85
2023/11/15 18:22:54;;;;;;;3.60;2.60;;;;;;;11.54;59.89;95539.47;6097203;23;20014;-85
2023/11/15 18:25:19;;;;;;;5.05;2.85;;;;;;;11.43;59.86;95545.09;6097776;23;20020;-85
2023/11/15 18:27:47;;;;;;;4.57;1.38;;;;;;;11.41;59.26;95532.25;6097450;23;20065;-86
2023/11/15 18:30:14;;;;;;;5.45;1.70;;;;;;;11.46;58.90;95537.75;6097315;23;20092;-85
2023/11/15 18:32:42;;;;;;;3.40;1.30;;;;;;;11.37;58.78;95548.41;6097271;23;20002;-85
2023/11/15 18:35:09;;;;;;;12.93;5.88;;;;;;;10.91;60.78;95543.97;6097632;23;20010;-86
2023/11/15 18:37:35;;;;;;;13.02;6.82;;;;;;;11.07;59.87;95541.25;6097724;23;20028;-86
2023/11/15 18:40:04;;;;;;;5.18;1.98;;;;;;;11.22;58.63;95541.31;6098236;23;20010;-86
2023/11/15 18:42:33;;;;;;;13.30;6.65;;;;;;;10.95;59.92;95537.44;6074158;23;20014;-86
2023/11/15 18:44:59;;;;;;;22.52;11.65;;;;;;;11.15;58.59;95527.38;6072863;23;20021;-86
2023/11/15 18:47:25;;;;;;;19.13;11.20;;;;;;;11.00;59.15;95537.72;6073368;23;20017;-86
2023/11/15 18:49:50;;;;;;;9.68;4.93;;;;;;;10.54;61.64;95525.44;6097425;23;20029;-86
2023/11/15 18:52:16;;;;;;;9.38;5.07;;;;;;;10.68;61.00;95533.50;6098018;23;20001;-86
2023/11/15 18:54:42;;;;;;;9.65;5.30;;;;;;;10.86;59.84;95531.47;6074266;23;20010;-86
2023/11/15 18:57:09;;;;;;;9.63;4.80;;;;;;;10.66;60.85;95520.69;6091432;23;20021;-86
2023/11/15 18:59:36;;;;;;;19.67;9.80;;;;;;;10.63;60.89;95528.81;6109542;23;20026;-86
2023/11/15 19:02:02;;;;;;;28.42;14.13;;;;;;;10.73;61.05;95541.63;6077454;23;20076;-86
2023/11/15 19:04:28;;;;;;;12.88;9.43;;;;;;;10.77;60.61;95524.69;6126256;23;20016;-86
2023/11/15 19:06:53;;;;;;;6.32;3.20;;;;;;;10.91;59.81;95534.38;6100990;23;20021;-86
2023/11/15 19:11:45;;;;;;;4.70;2.15;;;;;;;11.16;59.44;95526.41;6120214;23;20041;-85
2023/11/15 19:14:11;;;;;;;36.63;23.88;;;;;;;11.30;59.09;95538.66;6073875;23;20061;-86
2023/11/15 19:16:40;;;;;;;24.05;15.30;;;;;;;11.33;58.59;95524.50;6096886;23;20002;-85
2023/11/15 19:19:09;;;;;;;;;;;;;;;11.00;60.22;95535.13;6098078;23;20025;-86
2023/11/15 19:21:35;;;;;;;116.78;35.95;;;;;;;10.94;61.03;95530.59;6097032;23;19909;-86
2023/11/15 19:24:02;;;;;;;243.60;70.13;;;;;;;11.05;60.62;95519.00;6097373;23;20073;-86
2023/11/15 19:26:28;;;;;;;41.53;14.30;;;;;;;11.20;59.78;95527.69;6073964;23;20017;-86
2023/11/15 19:28:54;;;;;;;21.58;7.72;;;;;;;11.35;58.87;95520.72;6073618;23;20017;-86
2023/11/15 19:31:20;;;;;;;6.35;1.90;;;;;;;11.52;58.04;95512.78;6073005;23;20010;-86
2023/11/15 19:33:48;;;;;;;30.35;10.35;;;;;;;11.52;57.92;95504.97;6097487;23;20021;-85
2023/11/15 19:36:14;;;;;;;171.63;46.55;;;;;;;11.48;58.66;95514.09;6073577;23;20017;-85
2023/11/15 19:38:42;;;;;;;83.43;29.98;;;;;;;11.48;58.19;95517.53;6073744;23;20088;-86
2023/11/15 19:43:33;;;;;;;9.65;3.55;;;;;;;11.32;58.27;95510.66;6118859;23;20032;-86
2023/11/15 19:45:58;;;;;;;7.88;3.03;;;;;;;11.10;60.28;95524.47;6073252;23;20029;-86
2023/11/15 19:48:24;;;;;;;8.13;3.28;;;;;;;11.09;60.17;95510.66;6097969;23;20470;-86
2023/11/15 19:50:50;;;;;;;5.65;2.13;;;;;;;11.45;58.31;95517.06;6097955;23;20014;-86
2023/11/15 19:53:18;;;;;;;2.47;1.35;;;;;;;11.26;57.65;95516.56;6098164;23;19998;-86
2023/11/15 19:55:46;;;;;;;2.72;1.60;;;;;;;11.44;56.65;95502.41;6098003;23;20013;-86
2023/11/15 19:58:13;;;;;;;5.55;1.70;;;;;;;11.53;56.25;95503.97;6097739;23;20153;-85
2023/11/15 20:00:41;;;;;;;3.90;1.52;;;;;;;11.73;56.57;95517.31;6097105;23;20017;-86
2023/11/15 20:03:09;;;;;;;19.52;12.27;;;;;;;11.58;57.18;95506.88;6097622;23;20048;-86
2023/11/15 20:05:40;;;;;;;57.45;36.17;;;;;;;11.71;56.93;95511.47;6073618;23;20085;-86
2023/11/15 20:08:06;;;;;;;27.80;16.98;;;;;;;11.78;56.98;95512.38;6073553;23;20041;-86
2023/11/15 20:10:31;;;;;;;56.90;32.88;;;;;;;11.60;57.07;95491.06;6096632;23;20075;-86
2023/11/15 20:12:57;;;;;;;36.67;18.60;;;;;;;11.56;57.66;95503.63;6098790;23;20002;-86
2023/11/15 20:15:26;;;;;;;87.22;39.88;;;;;;;11.56;57.74;95503.63;6099033;23;20014;-85
2023/11/15 20:17:52;;;;;;;13.07;6.22;;;;;;;11.33;58.02;95488.84;6098550;23;20037;-86
2023/11/15 20:20:22;;;;;;;8.50;3.60;;;;;;;11.56;57.27;95490.59;6074867;23;20014;-86
2023/11/15 20:25:13;;;;;;;18.02;7.47;;;;;;;11.51;56.21;95492.91;6123850;23;20269;-87
2023/11/15 20:27:42;;;;;;;107.78;38.40;;;;;;;11.08;57.70;95505.63;6074859;23;20018;-86
2023/11/15 20:30:09;;;;;;;224.60;69.90;;;;;;;11.11;57.33;95484.44;6074336;23;20014;-86
2023/11/15 20:32:34;;;;;;;202.77;58.13;;;;;;;10.73;57.99;95487.78;6075276;23;20074;-85
2023/11/15 20:35:01;;;;;;;94.07;31.60;;;;;;;10.66;59.24;95491.25;6099316;23;20049;-85
2023/11/15 20:42:37;;;;;;;26.13;13.57;;;;;;;10.62;58.97;95467.34;6113125;23;20030;-85
2023/11/15 20:45:03;;;;;;;42.20;21.70;;;;;;;10.81;58.91;95471.31;6098725;23;20024;-85
2023/11/15 20:47:28;;;;;;;39.50;20.30;;;;;;;10.82;58.30;95465.13;6099192;23;20021;-85
2023/11/15 20:49:54;;;;;;;19.25;10.70;;;;;;;10.94;58.34;95475.94;6098854;23;20072;-86
2023/11/15 20:52:19;;;;;;;27.90;13.80;;;;;;;10.95;57.91;95470.56;6097644;23;20010;-85
2023/11/15 20:54:45;;;;;;;33.00;17.80;;;;;;;10.95;57.78;95456.75;6098922;23;20045;-86
2023/11/15 20:57:12;;;;;;;70.43;35.67;;;;;;;10.45;59.38;95456.25;6098796;23;20013;-86
2023/11/15 21:02:03;;;;;;;39.28;19.42;;;;;;;10.60;58.71;95447.72;6133023;23;20033;-86
2023/11/15 21:04:28;;;;;;;33.78;17.85;;;;;;;10.75;58.31;95452.00;6104185;23;20013;-85
2023/11/15 21:06:58;;;;;;;37.05;17.60;;;;;;;10.74;58.03;95452.19;6103914;23;20116;-85
2023/11/15 21:09:24;;;;;;;25.02;13.05;;;;;;;10.75;58.54;95461.59;6104590;23;20009;-86
2023/11/15 21:11:52;;;;;;;13.98;7.40;;;;;;;10.44;59.16;95453.81;6103825;23;20041;-86
2023/11/15 21:14:17;;;;;;;6.40;2.25;;;;;;;10.43;59.09;95457.38;6127917;23;20010;-86
2023/11/15 21:16:45;;;;;;;4.70;2.33;;;;;;;10.12;59.81;95439.97;6127394;23;20076;-86
2023/11/15 21:19:11;;;;;;;3.15;1.85;;;;;;;10.44;58.85;95452.03;6128359;23;20006;-85
2023/11/15 21:21:39;;;;;;;3.30;2.00;;;;;;;10.39;58.49;95446.50;6104585;23;20010;-86
2023/11/15 21:24:08;;;;;;;6.40;2.40;;;;;;;10.16;59.71;95423.84;6103683;23;20005;-87
2023/11/15 21:26:34;;;;;;;4.20;2.03;;;;;;;10.21;59.70;95427.75;6127921;23;20016;-85
2023/11/15 21:29:08;;;;;;;3.83;2.08;;;;;;;10.29;59.93;95431.09;6103771;23;20013;-86
2023/11/15 21:31:39;;;;;;;6.05;2.60;;;;;;;10.38;59.94;95439.72;6082512;23;20025;-86
2023/11/15 21:34:09;;;;;;;3.95;2.85;;;;;;;10.37;60.11;95422.47;6128043;23;20029;-86
2023/11/15 21:36:38;;;;;;;5.15;2.70;;;;;;;10.54;59.17;95423.19;6127634;23;20009;-86
2023/11/15 21:41:32;;;;;;;3.53;2.20;;;;;;;10.70;58.71;95427.47;6126576;23;20025;-86
2023/11/15 21:43:59;;;;;;;2.40;2.00;;;;;;;10.57;59.48;95418.47;6098148;23;20021;-86
2023/11/15 21:46:31;;;;;;;5.45;2.60;;;;;;;10.66;59.22;95431.41;6098935;23;20018;-86
2023/11/15 21:48:57;;;;;;;5.65;2.50;;;;;;;10.66;59.34;95416.63;6075392;23;20010;-86
2023/11/15 21:53:48;;;;;;;4.60;2.67;;;;;;;10.51;59.44;95416.56;6127380;23;20028;-85
2023/11/15 21:56:14;;;;;;;4.88;2.78;;;;;;;10.67;59.15;95413.03;6098355;23;20077;-85
2023/11/15 21:58:39;;;;;;;2.75;1.67;;;;;;;10.57;59.30;95417.66;6107363;23;20030;-85
2023/11/15 22:01:05;;;;;;;2.58;1.70;;;;;;;10.72;58.95;95410.72;6145389;23;19997;-85
2023/11/15 22:03:33;;;;;;;3.13;1.60;;;;;;;10.60;59.08;95406.09;6110895;23;20018;-86
2023/11/15 22:05:59;;;;;;;2.83;2.35;;;;;;;10.53;59.34;95395.59;6128129;23;20011;-85
2023/11/15 22:08:29;;;;;;;6.82;4.78;;;;;;;10.56;59.88;95390.81;6127956;23;20124;-86
2023/11/15 22:10:55;;;;;;;4.05;2.50;;;;;;;10.64;59.69;95399.56;6103576;23;20024;-86
2023/11/15 22:20:57;;;;;;;10.27;6.40;;;;;;;10.27;60.51;95391.47;6151964;23;20025;-86
2023/11/15 22:23:22;;;;;;;13.63;8.10;;;;;;;10.16;60.78;95386.66;6127791;23;20016;-86
2023/11/15 22:25:48;;;;;;;12.27;8.55;;;;;;;10.17;60.72;95383.88;6102898;23;20009;-86
2023/11/15 22:28:13;;;;;;;12.70;9.85;;;;;;;10.40;60.03;95401.34;6103367;23;20013;-86
2023/11/15 22:30:39;;;;;;;9.77;6.50;;;;;;;10.39;59.56;95378.13;6127118;23;20032;-86
2023/11/15 22:33:05;;;;;;;5.15;2.70;;;;;;;10.33;59.79;95382.22;6102686;23;20001;-85
2023/11/15 22:35:33;;;;;;;4.53;2.10;;;;;;;10.43;59.18;95385.38;6113652;23;20085;-87
2023/11/15 22:37:59;;;;;;;9.02;6.13;;;;;;;10.21;60.08;95381.75;6103280;23;20009;-86
2023/11/15 22:40:24;;;;;;;8.40;5.22;;;;;;;10.25;60.27;95377.03;6079042;23;20052;-86
2023/11/15 22:43:02;;;;;;;7.47;4.32;;;;;;;10.28;60.47;95395.69;6101922;23;20096;-87
2023/11/15 22:45:27;;;;;;;6.32;3.40;;;;;;;10.29;59.54;95375.72;6127718;23;20075;-87
2023/11/15 22:47:53;;;;;;;9.38;6.88;;;;;;;9.85;61.70;95386.66;6103590;23;20013;-86
2023/11/15 22:55:22;;;;;;;7.10;4.72;;;;;;;10.14;60.08;95384.22;6094381;23;20267;-86
2023/11/15 22:57:47;;;;;;;8.65;6.05;;;;;;;10.14;60.52;95399.81;6069356;23;20010;-87
2023/11/15 23:00:31;;;;;;;5.75;3.20;;;;;;;10.12;60.01;95399.19;6046578;23;20076;-86
2023/11/15 23:02:58;;;;;;;4.57;2.85;;;;;;;10.00;60.92;95404.94;6069663;23;20006;-86
2023/11/15 23:05:23;;;;;;;4.30;2.15;;;;;;;9.94;61.30;95393.44;6046328;23;20010;-86
2023/11/15 23:10:24;;;;;;;2.92;1.90;;;;;;;10.00;60.86;95399.75;6124452;23;20017;-85
2023/11/15 23:12:50;;;;;;;4.07;2.60;;;;;;;10.02;60.67;95397.78;6074857;23;20010;-87
2023/11/15 23:15:21;;;;;;;3.28;2.15;;;;;;;10.18;60.73;95390.72;6098593;23;20089;-86